sensor_id;sensor_type;location;lat;lon;timestamp;temperature;humidity
55365;DHT22;41245;45.384;20.390;2022-08-26T00:01:16;614.50;128.00
55365;DHT22;41245;45.384;20.390;2022-08-26T00:03:42;614.50;128.00
55365;DHT22;41245;45.384;20.390;2022-08-26T00:06:09;614.50;128.00
55365;DHT22;41245;45.384;20.390;2022-08-26T00:08:35;614.50;128.00
55365;DHT22;41245;45.384;20.390;2022-08-26T00:11:01;614.50;128.00
55365;DHT22;41245;45.384;20.390;2022-08-26T00:13:27;614.50;128.00
55365;DHT22;41245;45.384;20.390;2022-08-26T00:15:53;614.40;128.00
55365;DHT22;41245;45.384;20.390;2022-08-26T00:18:19;614.40;128.00
55365;DHT22;41245;45.384;20.390;2022-08-26T00:20:45;589.70;128.00
55365;DHT22;41245;45.384;20.390;2022-08-26T00:23:11;589.70;128.00
55365;DHT22;41245;45.384;20.390;2022-08-26T00:25:37;589.70;128.00
55365;DHT22;41245;45.384;20.390;2022-08-26T00:28:04;589.70;128.00
55365;DHT22;41245;45.384;20.390;2022-08-26T00:30:31;589.70;128.00
55365;DHT22;41245;45.384;20.390;2022-08-26T00:32:59;589.70;128.00
55365;DHT22;41245;45.384;20.390;2022-08-26T00:35:26;589.60;128.00
55365;DHT22;41245;45.384;20.390;2022-08-26T00:37:53;589.60;128.00
55365;DHT22;41245;45.384;20.390;2022-08-26T00:40:26;589.60;128.00
55365;DHT22;41245;45.384;20.390;2022-08-26T00:42:53;589.60;128.00
55365;DHT22;41245;45.384;20.390;2022-08-26T00:45:19;589.50;128.00
55365;DHT22;41245;45.384;20.390;2022-08-26T00:47:57;589.50;128.00
55365;DHT22;41245;45.384;20.390;2022-08-26T00:50:30;589.50;128.00
55365;DHT22;41245;45.384;20.390;2022-08-26T00:52:58;589.50;128.00
55365;DHT22;41245;45.384;20.390;2022-08-26T00:55:45;589.60;128.00
55365;DHT22;41245;45.384;20.390;2022-08-26T00:58:12;589.40;128.00
55365;DHT22;41245;45.384;20.390;2022-08-26T01:00:38;589.40;128.00
55365;DHT22;41245;45.384;20.390;2022-08-26T01:03:03;589.40;128.00
55365;DHT22;41245;45.384;20.390;2022-08-26T01:05:29;589.30;128.00
55365;DHT22;41245;45.384;20.390;2022-08-26T01:07:55;589.30;128.00
55365;DHT22;41245;45.384;20.390;2022-08-26T01:10:25;589.30;128.00
55365;DHT22;41245;45.384;20.390;2022-08-26T01:12:55;589.30;128.00
55365;DHT22;41245;45.384;20.390;2022-08-26T01:15:26;589.30;128.00
55365;DHT22;41245;45.384;20.390;2022-08-26T01:17:56;589.30;128.00
55365;DHT22;41245;45.384;20.390;2022-08-26T01:20:46;589.30;128.00
55365;DHT22;41245;45.384;20.390;2022-08-26T01:23:16;589.30;128.00
55365;DHT22;41245;45.384;20.390;2022-08-26T01:25:47;589.20;128.00
55365;DHT22;41245;45.384;20.390;2022-08-26T01:28:29;589.20;128.00
55365;DHT22;41245;45.384;20.390;2022-08-26T01:30:56;589.20;128.00
55365;DHT22;41245;45.384;20.390;2022-08-26T01:33:27;589.20;128.00
55365;DHT22;41245;45.384;20.390;2022-08-26T01:35:54;589.10;128.00
55365;DHT22;41245;45.384;20.390;2022-08-26T01:38:20;589.10;128.00
55365;DHT22;41245;45.384;20.390;2022-08-26T01:40:46;589.10;128.00
55365;DHT22;41245;45.384;20.390;2022-08-26T01:43:20;589.10;128.00
55365;DHT22;41245;45.384;20.390;2022-08-26T01:45:47;589.10;128.00
55365;DHT22;41245;45.384;20.390;2022-08-26T01:48:18;589.10;128.00
55365;DHT22;41245;45.384;20.390;2022-08-26T01:50:45;589.10;128.00
55365;DHT22;41245;45.384;20.390;2022-08-26T01:53:14;589.10;128.00
55365;DHT22;41245;45.384;20.390;2022-08-26T01:55:42;589.10;128.00
55365;DHT22;41245;45.384;20.390;2022-08-26T01:58:14;589.10;128.00
55365;DHT22;41245;45.384;20.390;2022-08-26T02:00:42;589.00;128.00
55365;DHT22;41245;45.384;20.390;2022-08-26T02:03:08;589.10;128.00
55365;DHT22;41245;45.384;20.390;2022-08-26T02:05:49;589.10;128.00
55365;DHT22;41245;45.384;20.390;2022-08-26T02:08:16;589.00;128.00
55365;DHT22;41245;45.384;20.390;2022-08-26T02:10:42;589.00;128.00
55365;DHT22;41245;45.384;20.390;2022-08-26T02:13:09;589.00;128.00
55365;DHT22;41245;45.384;20.390;2022-08-26T02:15:35;589.00;128.00
55365;DHT22;41245;45.384;20.390;2022-08-26T02:18:04;589.00;128.00
55365;DHT22;41245;45.384;20.390;2022-08-26T02:20:30;589.00;128.00
55365;DHT22;41245;45.384;20.390;2022-08-26T02:22:55;589.00;128.00
55365;DHT22;41245;45.384;20.390;2022-08-26T02:28:04;588.90;128.00
55365;DHT22;41245;45.384;20.390;2022-08-26T02:30:31;588.90;128.00
55365;DHT22;41245;45.384;20.390;2022-08-26T02:32:59;588.90;128.00
55365;DHT22;41245;45.384;20.390;2022-08-26T02:35:29;588.90;128.00
55365;DHT22;41245;45.384;20.390;2022-08-26T02:37:56;588.90;128.00
55365;DHT22;41245;45.384;20.390;2022-08-26T02:40:25;588.90;128.00
55365;DHT22;41245;45.384;20.390;2022-08-26T02:42:51;588.90;128.00
55365;DHT22;41245;45.384;20.390;2022-08-26T02:45:17;588.80;128.00
55365;DHT22;41245;45.384;20.390;2022-08-26T02:47:44;588.80;128.00
55365;DHT22;41245;45.384;20.390;2022-08-26T02:50:10;564.10;128.00
55365;DHT22;41245;45.384;20.390;2022-08-26T02:52:36;588.80;128.00
55365;DHT22;41245;45.384;20.390;2022-08-26T02:55:02;588.80;128.00
55365;DHT22;41245;45.384;20.390;2022-08-26T02:57:28;588.80;128.00
55365;DHT22;41245;45.384;20.390;2022-08-26T02:59:55;564.10;128.00
55365;DHT22;41245;45.384;20.390;2022-08-26T03:02:21;564.10;128.00
55365;DHT22;41245;45.384;20.390;2022-08-26T03:04:47;564.10;128.00
55365;DHT22;41245;45.384;20.390;2022-08-26T03:07:13;564.10;128.00
55365;DHT22;41245;45.384;20.390;2022-08-26T03:09:39;564.10;128.00
55365;DHT22;41245;45.384;20.390;2022-08-26T03:12:05;564.10;128.00
55365;DHT22;41245;45.384;20.390;2022-08-26T03:14:31;564.10;128.00
55365;DHT22;41245;45.384;20.390;2022-08-26T03:16:56;564.00;128.00
55365;DHT22;41245;45.384;20.390;2022-08-26T03:19:24;564.00;128.00
55365;DHT22;41245;45.384;20.390;2022-08-26T03:21:51;564.00;128.00
55365;DHT22;41245;45.384;20.390;2022-08-26T03:24:18;564.00;128.00
55365;DHT22;41245;45.384;20.390;2022-08-26T03:26:44;564.00;128.00
55365;DHT22;41245;45.384;20.390;2022-08-26T03:29:10;564.00;128.00
55365;DHT22;41245;45.384;20.390;2022-08-26T03:31:55;563.90;128.00
55365;DHT22;41245;45.384;20.390;2022-08-26T03:34:22;564.00;128.00
55365;DHT22;41245;45.384;20.390;2022-08-26T03:36:48;563.90;128.00
55365;DHT22;41245;45.384;20.390;2022-08-26T03:39:14;563.90;128.00
55365;DHT22;41245;45.384;20.390;2022-08-26T03:41:40;563.90;128.00
55365;DHT22;41245;45.384;20.390;2022-08-26T03:44:10;563.90;128.00
55365;DHT22;41245;45.384;20.390;2022-08-26T03:46:37;563.80;128.00
55365;DHT22;41245;45.384;20.390;2022-08-26T03:49:04;563.80;128.00
55365;DHT22;41245;45.384;20.390;2022-08-26T03:51:34;563.80;128.00
55365;DHT22;41245;45.384;20.390;2022-08-26T03:54:00;563.70;128.00
55365;DHT22;41245;45.384;20.390;2022-08-26T03:56:28;563.70;128.00
55365;DHT22;41245;45.384;20.390;2022-08-26T03:58:54;563.80;128.00
55365;DHT22;41245;45.384;20.390;2022-08-26T04:01:20;563.80;128.00
55365;DHT22;41245;45.384;20.390;2022-08-26T04:03:46;563.90;128.00
55365;DHT22;41245;45.384;20.390;2022-08-26T04:06:35;563.90;128.00
55365;DHT22;41245;45.384;20.390;2022-08-26T04:09:05;563.90;128.00
55365;DHT22;41245;45.384;20.390;2022-08-26T04:11:32;563.90;128.00
55365;DHT22;41245;45.384;20.390;2022-08-26T04:14:02;564.00;128.00
55365;DHT22;41245;45.384;20.390;2022-08-26T04:16:28;564.00;128.00
55365;DHT22;41245;45.384;20.390;2022-08-26T04:18:55;564.10;128.00
55365;DHT22;41245;45.384;20.390;2022-08-26T04:21:22;588.80;128.00
55365;DHT22;41245;45.384;20.390;2022-08-26T04:23:48;589.10;128.00
55365;DHT22;41245;45.384;20.390;2022-08-26T04:26:15;589.10;128.00
55365;DHT22;41245;45.384;20.390;2022-08-26T04:28:41;589.30;128.00
55365;DHT22;41245;45.384;20.390;2022-08-26T04:31:11;589.50;128.00
55365;DHT22;41245;45.384;20.390;2022-08-26T04:33:37;614.40;128.00
55365;DHT22;41245;45.384;20.390;2022-08-26T04:36:03;614.70;128.00
55365;DHT22;41245;45.384;20.390;2022-08-26T04:38:30;615.00;128.00
55365;DHT22;41245;45.384;20.390;2022-08-26T04:40:56;615.00;128.00
55365;DHT22;41245;45.384;20.390;2022-08-26T04:43:23;640.00;128.00
55365;DHT22;41245;45.384;20.390;2022-08-26T04:45:57;640.20;128.00
55365;DHT22;41245;45.384;20.390;2022-08-26T04:48:24;640.50;128.00
55365;DHT22;41245;45.384;20.390;2022-08-26T04:50:51;640.70;128.00
55365;DHT22;41245;45.384;20.390;2022-08-26T04:53:16;665.60;153.60
55365;DHT22;41245;45.384;20.390;2022-08-26T04:55:42;665.70;153.60
55365;DHT22;41245;45.384;20.390;2022-08-26T04:58:08;666.00;153.60
55365;DHT22;41245;45.384;20.390;2022-08-26T05:00:34;666.10;153.60
55365;DHT22;41245;45.384;20.390;2022-08-26T05:03:00;666.30;153.60
55365;DHT22;41245;45.384;20.390;2022-08-26T05:05:26;691.80;153.60
55365;DHT22;41245;45.384;20.390;2022-08-26T05:07:51;666.50;153.60
55365;DHT22;41245;45.384;20.390;2022-08-26T05:10:17;691.30;153.60
55365;DHT22;41245;45.384;20.390;2022-08-26T05:12:43;691.30;153.60
55365;DHT22;41245;45.384;20.390;2022-08-26T05:17:36;691.80;153.60
55365;DHT22;41245;45.384;20.390;2022-08-26T05:20:02;691.90;153.60
55365;DHT22;41245;45.384;20.390;2022-08-26T05:22:28;716.80;179.20
55365;DHT22;41245;45.384;20.390;2022-08-26T05:24:53;717.20;179.20
55365;DHT22;41245;45.384;20.390;2022-08-26T05:27:19;717.60;179.20
55365;DHT22;41245;45.384;20.390;2022-08-26T05:29:45;742.70;204.80
55365;DHT22;41245;45.384;20.390;2022-08-26T05:32:10;743.20;204.80
55365;DHT22;41245;45.384;20.390;2022-08-26T05:34:36;768.30;204.80
55365;DHT22;41245;45.384;20.390;2022-08-26T05:37:02;768.80;204.80
55365;DHT22;41245;45.384;20.390;2022-08-26T05:39:31;793.60;230.40
55365;DHT22;41245;45.384;20.390;2022-08-26T05:41:57;768.30;204.80
55365;DHT22;41245;45.384;20.390;2022-08-26T05:44:24;743.20;204.80
55365;DHT22;41245;45.384;20.390;2022-08-26T05:46:50;742.70;204.80
55365;DHT22;41245;45.384;20.390;2022-08-26T05:49:16;717.50;179.20
55365;DHT22;41245;45.384;20.390;2022-08-26T05:51:43;717.10;179.20
55365;DHT22;41245;45.384;20.390;2022-08-26T05:54:11;692.10;153.60
55365;DHT22;41245;45.384;20.390;2022-08-26T05:56:38;691.80;153.60
55365;DHT22;41245;45.384;20.390;2022-08-26T05:59:04;691.60;153.60
55365;DHT22;41245;45.384;20.390;2022-08-26T06:01:30;691.50;153.60
55365;DHT22;41245;45.384;20.390;2022-08-26T06:03:59;691.50;153.60
55365;DHT22;41245;45.384;20.390;2022-08-26T06:06:29;691.20;153.60
55365;DHT22;41245;45.384;20.390;2022-08-26T06:08:56;691.20;153.60
55365;DHT22;41245;45.384;20.390;2022-08-26T06:11:25;691.30;153.60
55365;DHT22;41245;45.384;20.390;2022-08-26T06:13:54;691.30;153.60
55365;DHT22;41245;45.384;20.390;2022-08-26T06:16:22;691.30;153.60
55365;DHT22;41245;45.384;20.390;2022-08-26T06:18:50;691.30;153.60
55365;DHT22;41245;45.384;20.390;2022-08-26T06:21:24;691.30;153.60
55365;DHT22;41245;45.384;20.390;2022-08-26T06:23:54;691.50;153.60
55365;DHT22;41245;45.384;20.390;2022-08-26T06:26:40;691.50;153.60
55365;DHT22;41245;45.384;20.390;2022-08-26T06:29:06;691.40;153.60
55365;DHT22;41245;45.384;20.390;2022-08-26T06:31:34;691.50;153.60
55365;DHT22;41245;45.384;20.390;2022-08-26T06:34:01;691.50;153.60
55365;DHT22;41245;45.384;20.390;2022-08-26T06:36:29;691.60;153.60
55365;DHT22;41245;45.384;20.390;2022-08-26T06:38:59;691.60;153.60
55365;DHT22;41245;45.384;20.390;2022-08-26T06:41:25;691.80;153.60
55365;DHT22;41245;45.384;20.390;2022-08-26T06:43:51;691.80;153.60
55365;DHT22;41245;45.384;20.390;2022-08-26T06:46:19;691.80;153.60
55365;DHT22;41245;45.384;20.390;2022-08-26T06:48:46;691.90;153.60
55365;DHT22;41245;45.384;20.390;2022-08-26T06:51:15;692.00;153.60
55365;DHT22;41245;45.384;20.390;2022-08-26T06:53:43;692.00;153.60
55365;DHT22;41245;45.384;20.390;2022-08-26T06:56:14;692.00;153.60
55365;DHT22;41245;45.384;20.390;2022-08-26T06:58:41;692.10;153.60
55365;DHT22;41245;45.384;20.390;2022-08-26T07:01:15;716.80;179.20
55365;DHT22;41245;45.384;20.390;2022-08-26T07:03:40;716.80;179.20
55365;DHT22;41245;45.384;20.390;2022-08-26T07:06:07;716.80;179.20
55365;DHT22;41245;45.384;20.390;2022-08-26T07:08:32;716.80;179.20
55365;DHT22;41245;45.384;20.390;2022-08-26T07:11:06;717.50;179.20
55365;DHT22;41245;45.384;20.390;2022-08-26T07:13:32;716.90;179.20
55365;DHT22;41245;45.384;20.390;2022-08-26T07:16:03;716.90;179.20
55365;DHT22;41245;45.384;20.390;2022-08-26T07:18:29;717.00;179.20
55365;DHT22;41245;45.384;20.390;2022-08-26T07:20:54;717.10;179.20
55365;DHT22;41245;45.384;20.390;2022-08-26T07:23:20;717.20;179.20
55365;DHT22;41245;45.384;20.390;2022-08-26T07:25:46;717.30;179.20
55365;DHT22;41245;45.384;20.390;2022-08-26T07:28:11;717.30;179.20
55365;DHT22;41245;45.384;20.390;2022-08-26T07:30:38;717.40;179.20
55365;DHT22;41245;45.384;20.390;2022-08-26T07:33:05;717.50;179.20
55365;DHT22;41245;45.384;20.390;2022-08-26T07:35:31;717.50;179.20
55365;DHT22;41245;45.384;20.390;2022-08-26T07:37:57;717.50;179.20
55365;DHT22;41245;45.384;20.390;2022-08-26T07:40:23;717.50;179.20
55365;DHT22;41245;45.384;20.390;2022-08-26T07:42:49;717.60;179.20
55365;DHT22;41245;45.384;20.390;2022-08-26T07:45:14;717.70;179.20
55365;DHT22;41245;45.384;20.390;2022-08-26T07:47:41;742.40;204.80
55365;DHT22;41245;45.384;20.390;2022-08-26T07:50:07;742.40;204.80
55365;DHT22;41245;45.384;20.390;2022-08-26T07:52:33;742.40;204.80
55365;DHT22;41245;45.384;20.390;2022-08-26T07:55:00;742.50;204.80
55365;DHT22;41245;45.384;20.390;2022-08-26T07:57:27;742.50;204.80
55365;DHT22;41245;45.384;20.390;2022-08-26T07:59:54;742.60;204.80
55365;DHT22;41245;45.384;20.390;2022-08-26T08:02:20;742.70;204.80
55365;DHT22;41245;45.384;20.390;2022-08-26T08:04:46;742.80;204.80
55365;DHT22;41245;45.384;20.390;2022-08-26T08:07:12;742.80;204.80
55365;DHT22;41245;45.384;20.390;2022-08-26T08:09:38;742.90;204.80
55365;DHT22;41245;45.384;20.390;2022-08-26T08:12:04;742.90;204.80
55365;DHT22;41245;45.384;20.390;2022-08-26T08:14:30;743.00;204.80
55365;DHT22;41245;45.384;20.390;2022-08-26T08:16:56;743.00;204.80
55365;DHT22;41245;45.384;20.390;2022-08-26T08:19:22;743.10;204.80
55365;DHT22;41245;45.384;20.390;2022-08-26T08:21:48;743.20;204.80
55365;DHT22;41245;45.384;20.390;2022-08-26T08:24:14;743.30;204.80
55365;DHT22;41245;45.384;20.390;2022-08-26T08:26:40;768.00;204.80
55365;DHT22;41245;45.384;20.390;2022-08-26T08:29:06;768.00;204.80
55365;DHT22;41245;45.384;20.390;2022-08-26T08:31:33;768.00;204.80
55365;DHT22;41245;45.384;20.390;2022-08-26T08:33:59;768.10;204.80
55365;DHT22;41245;45.384;20.390;2022-08-26T08:36:25;768.10;204.80
55365;DHT22;41245;45.384;20.390;2022-08-26T08:38:50;768.20;204.80
55365;DHT22;41245;45.384;20.390;2022-08-26T08:41:42;768.30;204.80
55365;DHT22;41245;45.384;20.390;2022-08-26T08:44:20;768.30;204.80
55365;DHT22;41245;45.384;20.390;2022-08-26T08:46:51;768.40;204.80
55365;DHT22;41245;45.384;20.390;2022-08-26T08:49:19;768.40;204.80
55365;DHT22;41245;45.384;20.390;2022-08-26T08:51:57;768.50;204.80
55365;DHT22;41245;45.384;20.390;2022-08-26T08:54:24;768.60;204.80
55365;DHT22;41245;45.384;20.390;2022-08-26T08:57:00;768.70;204.80
55365;DHT22;41245;45.384;20.390;2022-08-26T08:59:31;768.80;204.80
55365;DHT22;41245;45.384;20.390;2022-08-26T09:02:33;768.80;204.80
55365;DHT22;41245;45.384;20.390;2022-08-26T09:05:22;793.60;230.40
55365;DHT22;41245;45.384;20.390;2022-08-26T09:07:56;793.60;230.40
55365;DHT22;41245;45.384;20.390;2022-08-26T09:10:49;793.60;230.40
55365;DHT22;41245;45.384;20.390;2022-08-26T09:13:17;793.70;230.40
55365;DHT22;41245;45.384;20.390;2022-08-26T09:16:14;793.80;230.40
55365;DHT22;41245;45.384;20.390;2022-08-26T09:21:12;794.10;230.40
55365;DHT22;41245;45.384;20.390;2022-08-26T09:23:40;794.20;230.40
55365;DHT22;41245;45.384;20.390;2022-08-26T09:31:28;794.40;230.40
55365;DHT22;41245;45.384;20.390;2022-08-26T09:34:17;794.40;230.40
55365;DHT22;41245;45.384;20.390;2022-08-26T09:42:05;819.20;230.40
55365;DHT22;41245;45.384;20.390;2022-08-26T09:44:32;819.40;230.40
55365;DHT22;41245;45.384;20.390;2022-08-26T09:47:07;819.50;230.40
55365;DHT22;41245;45.384;20.390;2022-08-26T09:49:38;819.50;230.40
55365;DHT22;41245;45.384;20.390;2022-08-26T09:54:33;819.50;230.40
55365;DHT22;41245;45.384;20.390;2022-08-26T09:59:43;819.60;230.40
55365;DHT22;41245;45.384;20.390;2022-08-26T10:04:55;819.70;230.40
55365;DHT22;41245;45.384;20.390;2022-08-26T10:07:51;819.70;230.40
55365;DHT22;41245;45.384;20.390;2022-08-26T10:10:31;819.80;230.40
55365;DHT22;41245;45.384;20.390;2022-08-26T10:13:11;819.90;230.40
55365;DHT22;41245;45.384;20.390;2022-08-26T10:15:45;820.00;230.40
55365;DHT22;41245;45.384;20.390;2022-08-26T10:18:21;820.00;230.40
55365;DHT22;41245;45.384;20.390;2022-08-26T10:21:08;820.10;230.40
55365;DHT22;41245;45.384;20.390;2022-08-26T10:23:49;820.10;230.40
55365;DHT22;41245;45.384;20.390;2022-08-26T10:26:46;820.10;230.40
55365;DHT22;41245;45.384;20.390;2022-08-26T10:29:20;820.10;230.40
55365;DHT22;41245;45.384;20.390;2022-08-26T10:32:03;820.10;230.40
55365;DHT22;41245;45.384;20.390;2022-08-26T10:34:33;820.10;230.40
55365;DHT22;41245;45.384;20.390;2022-08-26T10:37:14;844.80;256.00
55365;DHT22;41245;45.384;20.390;2022-08-26T10:39:59;844.90;256.00
55365;DHT22;41245;45.384;20.390;2022-08-26T10:45:00;845.00;256.00
55365;DHT22;41245;45.384;20.390;2022-08-26T10:48:06;845.10;256.00
55365;DHT22;41245;45.384;20.390;2022-08-26T10:50:39;845.30;256.00
55365;DHT22;41245;45.384;20.390;2022-08-26T10:55:36;845.60;256.00
55365;DHT22;41245;45.384;20.390;2022-08-26T11:06:39;845.60;256.00
55365;DHT22;41245;45.384;20.390;2022-08-26T11:09:07;845.60;256.00
55365;DHT22;41245;45.384;20.390;2022-08-26T11:14:05;845.70;256.00
55365;DHT22;41245;45.384;20.390;2022-08-26T11:19:02;845.70;256.00
55365;DHT22;41245;45.384;20.390;2022-08-26T11:21:50;845.70;256.00
55365;DHT22;41245;45.384;20.390;2022-08-26T11:35:44;871.00;256.00
55365;DHT22;41245;45.384;20.390;2022-08-26T11:38:27;870.90;256.00
55365;DHT22;41245;45.384;20.390;2022-08-26T11:40:56;870.90;256.00
55365;DHT22;41245;45.384;20.390;2022-08-26T11:43:24;870.80;256.00
55365;DHT22;41245;45.384;20.390;2022-08-26T11:48:35;870.70;256.00
55365;DHT22;41245;45.384;20.390;2022-08-26T11:51:05;870.70;256.00
55365;DHT22;41245;45.384;20.390;2022-08-26T11:53:34;870.60;256.00
55365;DHT22;41245;45.384;20.390;2022-08-26T11:56:26;870.70;256.00
55365;DHT22;41245;45.384;20.390;2022-08-26T11:58:52;870.60;256.00
55365;DHT22;41245;45.384;20.390;2022-08-26T12:01:31;870.70;256.00
55365;DHT22;41245;45.384;20.390;2022-08-26T12:03:58;870.70;256.00
55365;DHT22;41245;45.384;20.390;2022-08-26T12:06:36;870.60;256.00
55365;DHT22;41245;45.384;20.390;2022-08-26T12:09:12;870.60;256.00
55365;DHT22;41245;45.384;20.390;2022-08-26T12:11:39;870.50;256.00
55365;DHT22;41245;45.384;20.390;2022-08-26T12:14:17;870.50;256.00
55365;DHT22;41245;45.384;20.390;2022-08-26T12:16:43;870.60;256.00
55365;DHT22;41245;45.384;20.390;2022-08-26T12:19:30;870.60;256.00
55365;DHT22;41245;45.384;20.390;2022-08-26T12:22:22;870.70;256.00
55365;DHT22;41245;45.384;20.390;2022-08-26T12:25:01;870.70;256.00
55365;DHT22;41245;45.384;20.390;2022-08-26T12:27:34;870.70;256.00
55365;DHT22;41245;45.384;20.390;2022-08-26T12:32:48;870.80;256.00
55365;DHT22;41245;45.384;20.390;2022-08-26T12:35:16;870.80;256.00
55365;DHT22;41245;45.384;20.390;2022-08-26T12:37:46;870.80;256.00
55365;DHT22;41245;45.384;20.390;2022-08-26T12:42:50;870.70;384.00
55365;DHT22;41245;45.384;20.390;2022-08-26T12:45:31;870.80;563.20
55365;DHT22;41245;45.384;20.390;2022-08-26T12:48:05;870.60;614.40
55365;DHT22;41245;45.384;20.390;2022-08-26T12:50:33;870.90;537.60
55365;DHT22;41245;45.384;20.390;2022-08-26T12:55:42;870.90;614.40
55365;DHT22;41245;45.384;20.390;2022-08-26T13:01:19;870.90;691.20
55365;DHT22;41245;45.384;20.390;2022-08-26T13:03:47;870.90;435.20
55365;DHT22;41245;45.384;20.390;2022-08-26T13:08:54;870.70;384.00
55365;DHT22;41245;45.384;20.390;2022-08-26T13:16:31;870.70;281.60
55365;DHT22;41245;45.384;20.390;2022-08-26T13:19:00;870.70;307.20
55365;DHT22;41245;45.384;20.390;2022-08-26T13:21:32;870.70;281.60
55365;DHT22;41245;45.384;20.390;2022-08-26T13:24:13;870.80;332.80
55365;DHT22;41245;45.384;20.390;2022-08-26T13:26:40;870.80;486.40
55365;DHT22;41245;45.384;20.390;2022-08-26T13:29:06;870.80;460.80
55365;DHT22;41245;45.384;20.390;2022-08-26T13:31:32;870.90;307.20
55365;DHT22;41245;45.384;20.390;2022-08-26T13:34:02;870.80;281.60
55365;DHT22;41245;45.384;20.390;2022-08-26T13:36:28;870.80;358.40
55365;DHT22;41245;45.384;20.390;2022-08-26T13:38:54;870.80;332.80
55365;DHT22;41245;45.384;20.390;2022-08-26T13:41:20;870.80;332.80
55365;DHT22;41245;45.384;20.390;2022-08-26T13:43:45;870.70;358.40
55365;DHT22;41245;45.384;20.390;2022-08-26T13:46:11;870.70;435.20
55365;DHT22;41245;45.384;20.390;2022-08-26T13:48:37;870.70;358.40
55365;DHT22;41245;45.384;20.390;2022-08-26T13:51:03;870.80;307.20
55365;DHT22;41245;45.384;20.390;2022-08-26T13:53:29;870.80;358.40
55365;DHT22;41245;45.384;20.390;2022-08-26T13:55:59;870.80;486.40
55365;DHT22;41245;45.384;20.390;2022-08-26T13:58:27;870.80;384.00
55365;DHT22;41245;45.384;20.390;2022-08-26T14:00:54;870.70;460.80
55365;DHT22;41245;45.384;20.390;2022-08-26T14:03:20;870.70;537.60
55365;DHT22;41245;45.384;20.390;2022-08-26T14:05:46;870.70;512.00
55365;DHT22;41245;45.384;20.390;2022-08-26T14:08:12;870.70;537.60
55365;DHT22;41245;45.384;20.390;2022-08-26T14:10:37;870.70;537.60
55365;DHT22;41245;45.384;20.390;2022-08-26T14:13:03;870.70;563.20
55365;DHT22;41245;45.384;20.390;2022-08-26T14:15:32;870.70;435.20
55365;DHT22;41245;45.384;20.390;2022-08-26T14:18:02;870.70;512.00
55365;DHT22;41245;45.384;20.390;2022-08-26T14:20:30;870.70;435.20
55365;DHT22;41245;45.384;20.390;2022-08-26T14:22:56;870.70;460.80
55365;DHT22;41245;45.384;20.390;2022-08-26T14:25:23;870.70;614.40
55365;DHT22;41245;45.384;20.390;2022-08-26T14:27:50;870.70;588.80
55365;DHT22;41245;45.384;20.390;2022-08-26T14:30:18;870.70;614.40
55365;DHT22;41245;45.384;20.390;2022-08-26T14:32:55;870.70;537.60
55365;DHT22;41245;45.384;20.390;2022-08-26T14:35:23;870.70;563.20
55365;DHT22;41245;45.384;20.390;2022-08-26T14:37:50;870.70;588.80
55365;DHT22;41245;45.384;20.390;2022-08-26T14:40:17;870.70;563.20
55365;DHT22;41245;45.384;20.390;2022-08-26T14:42:49;870.60;537.60
55365;DHT22;41245;45.384;20.390;2022-08-26T14:45:17;870.50;486.40
55365;DHT22;41245;45.384;20.390;2022-08-26T14:47:47;870.50;384.00
55365;DHT22;41245;45.384;20.390;2022-08-26T14:50:17;870.50;409.60
55365;DHT22;41245;45.384;20.390;2022-08-26T14:52:44;870.50;537.60
55365;DHT22;41245;45.384;20.390;2022-08-26T14:55:29;870.40;691.20
55365;DHT22;41245;45.384;20.390;2022-08-26T14:57:56;870.40;665.60
55365;DHT22;41245;45.384;20.390;2022-08-26T15:00:22;870.40;614.40
55365;DHT22;41245;45.384;20.390;2022-08-26T15:02:48;845.60;614.40
55365;DHT22;41245;45.384;20.390;2022-08-26T15:05:14;845.60;563.20
55365;DHT22;41245;45.384;20.390;2022-08-26T15:07:40;845.60;563.20
55365;DHT22;41245;45.384;20.390;2022-08-26T15:10:08;845.60;512.00
55365;DHT22;41245;45.384;20.390;2022-08-26T15:12:36;845.60;512.00
55365;DHT22;41245;45.384;20.390;2022-08-26T15:15:02;845.60;563.20
55365;DHT22;41245;45.384;20.390;2022-08-26T15:17:28;845.60;563.20
55365;DHT22;41245;45.384;20.390;2022-08-26T15:19:54;845.60;512.00
55365;DHT22;41245;45.384;20.390;2022-08-26T15:22:20;845.50;563.20
55365;DHT22;41245;45.384;20.390;2022-08-26T15:24:46;845.40;460.80
55365;DHT22;41245;45.384;20.390;2022-08-26T15:27:12;845.40;563.20
55365;DHT22;41245;45.384;20.390;2022-08-26T15:29:37;845.30;563.20
55365;DHT22;41245;45.384;20.390;2022-08-26T15:32:03;845.30;486.40
55365;DHT22;41245;45.384;20.390;2022-08-26T15:34:29;845.30;435.20
55365;DHT22;41245;45.384;20.390;2022-08-26T15:36:56;845.20;409.60
55365;DHT22;41245;45.384;20.390;2022-08-26T15:39:22;845.10;409.60
55365;DHT22;41245;45.384;20.390;2022-08-26T15:41:49;844.90;486.40
55365;DHT22;41245;45.384;20.390;2022-08-26T15:44:15;844.90;512.00
55365;DHT22;41245;45.384;20.390;2022-08-26T15:46:46;844.80;435.20
55365;DHT22;41245;45.384;20.390;2022-08-26T15:49:12;844.80;512.00
55365;DHT22;41245;45.384;20.390;2022-08-26T15:51:41;844.80;460.80
55365;DHT22;41245;45.384;20.390;2022-08-26T15:54:08;844.80;384.00
55365;DHT22;41245;45.384;20.390;2022-08-26T15:56:35;820.10;435.20
55365;DHT22;41245;45.384;20.390;2022-08-26T15:59:03;820.10;409.60
55365;DHT22;41245;45.384;20.390;2022-08-26T16:01:30;820.00;460.80
55365;DHT22;41245;45.384;20.390;2022-08-26T16:03:56;820.00;563.20
55365;DHT22;41245;45.384;20.390;2022-08-26T16:06:25;819.90;486.40
55365;DHT22;41245;45.384;20.390;2022-08-26T16:08:52;819.90;486.40
55365;DHT22;41245;45.384;20.390;2022-08-26T16:11:17;819.70;409.60
55365;DHT22;41245;45.384;20.390;2022-08-26T16:13:44;819.70;435.20
55365;DHT22;41245;45.384;20.390;2022-08-26T16:16:10;819.70;435.20
55365;DHT22;41245;45.384;20.390;2022-08-26T16:18:36;819.70;435.20